sensor_id;sensor_type;location;lat;lon;timestamp;temperature;humidity
12578;DHT22;6354;51.026;8.968;2022-07-04T00:00:59;18.20;99.90
12578;DHT22;6354;51.026;8.968;2022-07-04T00:03:27;18.20;99.90
12578;DHT22;6354;51.026;8.968;2022-07-04T00:05:55;18.10;99.90
12578;DHT22;6354;51.026;8.968;2022-07-04T00:08:23;18.00;99.90
12578;DHT22;6354;51.026;8.968;2022-07-04T00:10:51;18.00;99.90
12578;DHT22;6354;51.026;8.968;2022-07-04T00:13:19;18.00;99.90
12578;DHT22;6354;51.026;8.968;2022-07-04T00:15:47;18.00;99.90
12578;DHT22;6354;51.026;8.968;2022-07-04T00:18:17;17.90;99.90
12578;DHT22;6354;51.026;8.968;2022-07-04T00:20:45;17.90;99.90
12578;DHT22;6354;51.026;8.968;2022-07-04T00:23:13;17.80;99.90
12578;DHT22;6354;51.026;8.968;2022-07-04T00:25:41;17.80;99.90
12578;DHT22;6354;51.026;8.968;2022-07-04T00:28:09;17.80;99.90
12578;DHT22;6354;51.026;8.968;2022-07-04T00:30:37;17.70;99.90
12578;DHT22;6354;51.026;8.968;2022-07-04T00:33:05;17.60;99.90
12578;DHT22;6354;51.026;8.968;2022-07-04T00:35:34;17.60;99.90
12578;DHT22;6354;51.026;8.968;2022-07-04T00:38:02;17.60;99.90
12578;DHT22;6354;51.026;8.968;2022-07-04T00:40:30;17.50;99.90
12578;DHT22;6354;51.026;8.968;2022-07-04T00:43:00;17.50;99.90
12578;DHT22;6354;51.026;8.968;2022-07-04T00:45:29;17.50;99.90
12578;DHT22;6354;51.026;8.968;2022-07-04T00:47:57;17.40;99.90
12578;DHT22;6354;51.026;8.968;2022-07-04T00:50:25;17.40;99.90
12578;DHT22;6354;51.026;8.968;2022-07-04T00:52:55;17.40;99.90
12578;DHT22;6354;51.026;8.968;2022-07-04T00:55:24;17.50;99.90
12578;DHT22;6354;51.026;8.968;2022-07-04T00:57:52;17.50;99.90
12578;DHT22;6354;51.026;8.968;2022-07-04T01:00:20;17.50;99.90
12578;DHT22;6354;51.026;8.968;2022-07-04T01:02:48;17.50;99.90
12578;DHT22;6354;51.026;8.968;2022-07-04T01:05:16;17.50;99.90
12578;DHT22;6354;51.026;8.968;2022-07-04T01:07:44;17.50;99.90
12578;DHT22;6354;51.026;8.968;2022-07-04T01:10:14;17.50;99.90
12578;DHT22;6354;51.026;8.968;2022-07-04T01:12:42;17.50;99.90
12578;DHT22;6354;51.026;8.968;2022-07-04T01:15:10;17.40;99.90
12578;DHT22;6354;51.026;8.968;2022-07-04T01:17:38;17.40;99.90
12578;DHT22;6354;51.026;8.968;2022-07-04T01:20:11;17.30;99.90
12578;DHT22;6354;51.026;8.968;2022-07-04T01:22:39;17.30;99.90
12578;DHT22;6354;51.026;8.968;2022-07-04T01:25:08;17.20;99.90
12578;DHT22;6354;51.026;8.968;2022-07-04T01:27:37;17.10;99.90
12578;DHT22;6354;51.026;8.968;2022-07-04T01:30:05;17.10;99.90
12578;DHT22;6354;51.026;8.968;2022-07-04T01:32:34;17.00;99.90
12578;DHT22;6354;51.026;8.968;2022-07-04T01:35:02;17.00;99.90
12578;DHT22;6354;51.026;8.968;2022-07-04T01:37:31;16.90;99.90
12578;DHT22;6354;51.026;8.968;2022-07-04T01:39:59;16.90;99.90
12578;DHT22;6354;51.026;8.968;2022-07-04T01:42:27;16.90;99.90
12578;DHT22;6354;51.026;8.968;2022-07-04T01:44:55;16.90;99.90
12578;DHT22;6354;51.026;8.968;2022-07-04T01:47:23;16.90;99.90
12578;DHT22;6354;51.026;8.968;2022-07-04T01:49:52;16.80;99.90
12578;DHT22;6354;51.026;8.968;2022-07-04T01:52:20;16.90;99.90
12578;DHT22;6354;51.026;8.968;2022-07-04T01:54:49;16.80;99.90
12578;DHT22;6354;51.026;8.968;2022-07-04T01:57:17;16.80;99.90
12578;DHT22;6354;51.026;8.968;2022-07-04T01:59:45;16.80;99.90
12578;DHT22;6354;51.026;8.968;2022-07-04T02:02:31;16.70;99.90
12578;DHT22;6354;51.026;8.968;2022-07-04T02:04:59;16.60;99.90
12578;DHT22;6354;51.026;8.968;2022-07-04T02:07:27;16.50;99.90
12578;DHT22;6354;51.026;8.968;2022-07-04T02:09:56;16.40;99.90
12578;DHT22;6354;51.026;8.968;2022-07-04T02:12:25;16.30;99.90
12578;DHT22;6354;51.026;8.968;2022-07-04T02:15:10;16.30;99.90
12578;DHT22;6354;51.026;8.968;2022-07-04T02:17:38;16.30;99.90
12578;DHT22;6354;51.026;8.968;2022-07-04T02:20:07;16.20;99.90
12578;DHT22;6354;51.026;8.968;2022-07-04T02:22:35;16.10;99.90
12578;DHT22;6354;51.026;8.968;2022-07-04T02:25:05;16.00;99.90
12578;DHT22;6354;51.026;8.968;2022-07-04T02:27:34;16.00;99.90
12578;DHT22;6354;51.026;8.968;2022-07-04T02:30:02;15.90;99.90
12578;DHT22;6354;51.026;8.968;2022-07-04T02:32:30;15.90;99.90
12578;DHT22;6354;51.026;8.968;2022-07-04T02:34:58;15.80;99.90
12578;DHT22;6354;51.026;8.968;2022-07-04T02:37:26;15.80;99.90
12578;DHT22;6354;51.026;8.968;2022-07-04T02:39:54;15.80;99.90
12578;DHT22;6354;51.026;8.968;2022-07-04T02:42:24;15.70;99.90
12578;DHT22;6354;51.026;8.968;2022-07-04T02:44:56;15.70;99.90
12578;DHT22;6354;51.026;8.968;2022-07-04T02:47:24;15.70;99.90
12578;DHT22;6354;51.026;8.968;2022-07-04T02:49:52;15.60;99.90
12578;DHT22;6354;51.026;8.968;2022-07-04T02:52:20;15.50;99.90
12578;DHT22;6354;51.026;8.968;2022-07-04T02:54:48;15.40;99.90
12578;DHT22;6354;51.026;8.968;2022-07-04T02:57:19;15.30;99.90
12578;DHT22;6354;51.026;8.968;2022-07-04T02:59:48;15.30;99.90
12578;DHT22;6354;51.026;8.968;2022-07-04T03:02:16;15.30;99.90
12578;DHT22;6354;51.026;8.968;2022-07-04T03:04:44;15.40;99.90
12578;DHT22;6354;51.026;8.968;2022-07-04T03:07:13;15.40;99.90
12578;DHT22;6354;51.026;8.968;2022-07-04T03:09:41;15.40;99.90
12578;DHT22;6354;51.026;8.968;2022-07-04T03:12:09;15.40;99.90
12578;DHT22;6354;51.026;8.968;2022-07-04T03:14:37;15.40;99.90
12578;DHT22;6354;51.026;8.968;2022-07-04T03:17:06;15.40;99.90
12578;DHT22;6354;51.026;8.968;2022-07-04T03:19:34;15.30;99.90
12578;DHT22;6354;51.026;8.968;2022-07-04T03:22:03;15.30;99.90
12578;DHT22;6354;51.026;8.968;2022-07-04T03:24:31;15.30;99.90
12578;DHT22;6354;51.026;8.968;2022-07-04T03:27:00;15.30;99.90
12578;DHT22;6354;51.026;8.968;2022-07-04T03:29:28;15.20;99.90
12578;DHT22;6354;51.026;8.968;2022-07-04T03:31:56;15.10;99.90
12578;DHT22;6354;51.026;8.968;2022-07-04T03:34:26;15.10;99.90
12578;DHT22;6354;51.026;8.968;2022-07-04T03:36:54;15.00;99.90
12578;DHT22;6354;51.026;8.968;2022-07-04T03:39:22;15.00;99.90
12578;DHT22;6354;51.026;8.968;2022-07-04T03:41:50;14.90;99.90
12578;DHT22;6354;51.026;8.968;2022-07-04T03:44:18;14.90;99.90
12578;DHT22;6354;51.026;8.968;2022-07-04T03:46:46;14.80;99.90
12578;DHT22;6354;51.026;8.968;2022-07-04T03:49:14;14.80;99.90
12578;DHT22;6354;51.026;8.968;2022-07-04T03:51:44;14.80;99.90
12578;DHT22;6354;51.026;8.968;2022-07-04T03:54:12;14.70;99.90
12578;DHT22;6354;51.026;8.968;2022-07-04T03:56:43;14.70;99.90
12578;DHT22;6354;51.026;8.968;2022-07-04T03:59:11;14.70;99.90
12578;DHT22;6354;51.026;8.968;2022-07-04T04:01:39;14.70;99.90
12578;DHT22;6354;51.026;8.968;2022-07-04T04:04:08;14.70;99.90
12578;DHT22;6354;51.026;8.968;2022-07-04T04:06:55;14.80;99.90
12578;DHT22;6354;51.026;8.968;2022-07-04T04:09:23;14.80;99.90
12578;DHT22;6354;51.026;8.968;2022-07-04T04:11:52;14.80;99.90
12578;DHT22;6354;51.026;8.968;2022-07-04T04:14:20;14.80;99.90
12578;DHT22;6354;51.026;8.968;2022-07-04T04:16:48;15.10;99.90
12578;DHT22;6354;51.026;8.968;2022-07-04T04:19:16;16.20;99.90
12578;DHT22;6354;51.026;8.968;2022-07-04T04:21:44;17.10;99.90
12578;DHT22;6354;51.026;8.968;2022-07-04T04:24:14;18.00;99.90
12578;DHT22;6354;51.026;8.968;2022-07-04T04:26:42;18.60;99.90
12578;DHT22;6354;51.026;8.968;2022-07-04T04:29:10;19.20;99.90
12578;DHT22;6354;51.026;8.968;2022-07-04T04:31:38;19.60;99.90
12578;DHT22;6354;51.026;8.968;2022-07-04T04:34:06;20.10;99.90
12578;DHT22;6354;51.026;8.968;2022-07-04T04:36:34;20.40;99.90
12578;DHT22;6354;51.026;8.968;2022-07-04T04:39:02;20.70;99.90
12578;DHT22;6354;51.026;8.968;2022-07-04T04:41:32;20.80;99.90
12578;DHT22;6354;51.026;8.968;2022-07-04T04:44:00;21.20;99.90
12578;DHT22;6354;51.026;8.968;2022-07-04T04:46:28;21.50;99.90
12578;DHT22;6354;51.026;8.968;2022-07-04T04:48:56;21.70;99.90
12578;DHT22;6354;51.026;8.968;2022-07-04T04:51:24;22.10;99.90
12578;DHT22;6354;51.026;8.968;2022-07-04T04:53:52;22.20;99.90
12578;DHT22;6354;51.026;8.968;2022-07-04T04:56:20;22.60;99.90
12578;DHT22;6354;51.026;8.968;2022-07-04T04:58:50;23.00;99.90
12578;DHT22;6354;51.026;8.968;2022-07-04T05:01:18;23.20;99.90
12578;DHT22;6354;51.026;8.968;2022-07-04T05:04:06;23.30;99.90
12578;DHT22;6354;51.026;8.968;2022-07-04T05:06:35;23.30;99.90
12578;DHT22;6354;51.026;8.968;2022-07-04T05:09:03;23.70;99.90
12578;DHT22;6354;51.026;8.968;2022-07-04T05:11:31;23.70;99.90
12578;DHT22;6354;51.026;8.968;2022-07-04T05:14:00;23.90;99.90
12578;DHT22;6354;51.026;8.968;2022-07-04T05:16:29;24.30;99.90
12578;DHT22;6354;51.026;8.968;2022-07-04T05:18:57;24.70;99.90
12578;DHT22;6354;51.026;8.968;2022-07-04T05:21:25;25.10;99.90
12578;DHT22;6354;51.026;8.968;2022-07-04T05:23:54;25.50;99.90
12578;DHT22;6354;51.026;8.968;2022-07-04T05:26:23;25.60;99.90
12578;DHT22;6354;51.026;8.968;2022-07-04T05:28:51;25.90;99.90
12578;DHT22;6354;51.026;8.968;2022-07-04T05:31:20;26.00;99.90
12578;DHT22;6354;51.026;8.968;2022-07-04T05:33:49;26.10;99.90
12578;DHT22;6354;51.026;8.968;2022-07-04T05:36:17;25.90;99.90
12578;DHT22;6354;51.026;8.968;2022-07-04T05:38:46;26.10;99.90
12578;DHT22;6354;51.026;8.968;2022-07-04T05:41:14;26.10;99.90
12578;DHT22;6354;51.026;8.968;2022-07-04T05:43:42;26.10;98.90
12578;DHT22;6354;51.026;8.968;2022-07-04T05:46:11;26.30;98.60
12578;DHT22;6354;51.026;8.968;2022-07-04T05:48:40;26.20;97.90
12578;DHT22;6354;51.026;8.968;2022-07-04T05:51:08;26.40;98.10
12578;DHT22;6354;51.026;8.968;2022-07-04T05:53:37;26.50;97.70
12578;DHT22;6354;51.026;8.968;2022-07-04T05:56:05;26.70;97.40
12578;DHT22;6354;51.026;8.968;2022-07-04T05:58:33;27.00;96.30
12578;DHT22;6354;51.026;8.968;2022-07-04T06:01:01;27.20;95.30
12578;DHT22;6354;51.026;8.968;2022-07-04T06:03:29;27.10;95.00
12578;DHT22;6354;51.026;8.968;2022-07-04T06:05:58;27.20;94.10
12578;DHT22;6354;51.026;8.968;2022-07-04T06:08:26;27.50;93.70
12578;DHT22;6354;51.026;8.968;2022-07-04T06:10:54;27.60;93.00
12578;DHT22;6354;51.026;8.968;2022-07-04T06:13:23;27.50;93.20
12578;DHT22;6354;51.026;8.968;2022-07-04T06:15:51;27.40;92.60
12578;DHT22;6354;51.026;8.968;2022-07-04T06:18:19;27.40;92.70
12578;DHT22;6354;51.026;8.968;2022-07-04T06:20:47;27.80;92.60
12578;DHT22;6354;51.026;8.968;2022-07-04T06:23:16;27.90;93.00
12578;DHT22;6354;51.026;8.968;2022-07-04T06:25:44;28.30;92.50
12578;DHT22;6354;51.026;8.968;2022-07-04T06:28:13;28.40;91.90
12578;DHT22;6354;51.026;8.968;2022-07-04T06:31:01;28.80;91.60
12578;DHT22;6354;51.026;8.968;2022-07-04T06:33:29;28.60;91.20
12578;DHT22;6354;51.026;8.968;2022-07-04T06:35:57;28.70;90.70
12578;DHT22;6354;51.026;8.968;2022-07-04T06:38:28;28.90;90.30
12578;DHT22;6354;51.026;8.968;2022-07-04T06:40:57;29.10;88.40
12578;DHT22;6354;51.026;8.968;2022-07-04T06:43:26;29.10;87.80
12578;DHT22;6354;51.026;8.968;2022-07-04T06:45:54;28.80;88.20
12578;DHT22;6354;51.026;8.968;2022-07-04T06:48:22;28.60;87.20
12578;DHT22;6354;51.026;8.968;2022-07-04T06:50:50;29.10;87.40
12578;DHT22;6354;51.026;8.968;2022-07-04T06:53:40;29.20;87.80
12578;DHT22;6354;51.026;8.968;2022-07-04T06:56:13;29.30;86.40
12578;DHT22;6354;51.026;8.968;2022-07-04T06:58:54;29.10;86.80
12578;DHT22;6354;51.026;8.968;2022-07-04T07:01:22;29.00;87.40
12578;DHT22;6354;51.026;8.968;2022-07-04T07:03:50;29.40;88.40
12578;DHT22;6354;51.026;8.968;2022-07-04T07:06:18;29.50;85.40
12578;DHT22;6354;51.026;8.968;2022-07-04T07:08:48;29.50;85.30
12578;DHT22;6354;51.026;8.968;2022-07-04T07:11:16;29.70;85.50
12578;DHT22;6354;51.026;8.968;2022-07-04T07:13:47;29.60;83.20
12578;DHT22;6354;51.026;8.968;2022-07-04T07:16:17;29.40;83.90
12578;DHT22;6354;51.026;8.968;2022-07-04T07:18:46;29.60;81.40
12578;DHT22;6354;51.026;8.968;2022-07-04T07:21:16;29.50;83.20
12578;DHT22;6354;51.026;8.968;2022-07-04T07:23:44;29.40;82.90
12578;DHT22;6354;51.026;8.968;2022-07-04T07:26:13;29.30;83.20
12578;DHT22;6354;51.026;8.968;2022-07-04T07:28:42;29.20;80.20
12578;DHT22;6354;51.026;8.968;2022-07-04T07:31:10;29.10;80.30
12578;DHT22;6354;51.026;8.968;2022-07-04T07:33:38;28.80;82.50
12578;DHT22;6354;51.026;8.968;2022-07-04T07:36:06;29.10;83.60
12578;DHT22;6354;51.026;8.968;2022-07-04T07:38:34;29.10;82.20
12578;DHT22;6354;51.026;8.968;2022-07-04T07:41:02;29.00;80.90
12578;DHT22;6354;51.026;8.968;2022-07-04T07:43:32;29.00;81.50
12578;DHT22;6354;51.026;8.968;2022-07-04T07:46:00;29.00;80.60
12578;DHT22;6354;51.026;8.968;2022-07-04T07:48:28;29.20;79.10
12578;DHT22;6354;51.026;8.968;2022-07-04T07:50:57;29.20;78.50
12578;DHT22;6354;51.026;8.968;2022-07-04T07:53:25;29.00;78.60
12578;DHT22;6354;51.026;8.968;2022-07-04T07:55:53;28.70;80.10
12578;DHT22;6354;51.026;8.968;2022-07-04T07:58:21;28.50;80.40
12578;DHT22;6354;51.026;8.968;2022-07-04T08:00:51;28.50;79.80
12578;DHT22;6354;51.026;8.968;2022-07-04T08:03:22;28.50;79.70
12578;DHT22;6354;51.026;8.968;2022-07-04T08:06:07;28.80;79.60
12578;DHT22;6354;51.026;8.968;2022-07-04T08:08:35;28.70;82.00
12578;DHT22;6354;51.026;8.968;2022-07-04T08:11:04;28.60;81.50
12578;DHT22;6354;51.026;8.968;2022-07-04T08:13:32;28.40;80.50
12578;DHT22;6354;51.026;8.968;2022-07-04T08:16:02;28.00;80.80
12578;DHT22;6354;51.026;8.968;2022-07-04T08:18:30;27.40;81.50
12578;DHT22;6354;51.026;8.968;2022-07-04T08:20:58;27.20;83.30
12578;DHT22;6354;51.026;8.968;2022-07-04T08:23:32;27.20;83.30
12578;DHT22;6354;51.026;8.968;2022-07-04T08:26:01;27.00;83.60
12578;DHT22;6354;51.026;8.968;2022-07-04T08:28:29;26.60;82.00
12578;DHT22;6354;51.026;8.968;2022-07-04T08:30:58;26.40;82.30
12578;DHT22;6354;51.026;8.968;2022-07-04T08:33:28;26.10;84.50
12578;DHT22;6354;51.026;8.968;2022-07-04T08:36:01;26.20;84.80
12578;DHT22;6354;51.026;8.968;2022-07-04T08:38:29;26.00;84.20
12578;DHT22;6354;51.026;8.968;2022-07-04T08:40:59;26.00;84.20
12578;DHT22;6354;51.026;8.968;2022-07-04T08:43:30;25.90;86.80
12578;DHT22;6354;51.026;8.968;2022-07-04T08:46:03;26.00;85.30
12578;DHT22;6354;51.026;8.968;2022-07-04T08:48:51;26.10;84.60
12578;DHT22;6354;51.026;8.968;2022-07-04T08:51:29;26.30;86.50
12578;DHT22;6354;51.026;8.968;2022-07-04T08:54:00;26.50;87.40
12578;DHT22;6354;51.026;8.968;2022-07-04T08:56:49;26.30;84.70
12578;DHT22;6354;51.026;8.968;2022-07-04T08:59:36;26.40;84.70
12578;DHT22;6354;51.026;8.968;2022-07-04T09:02:04;26.40;86.30
12578;DHT22;6354;51.026;8.968;2022-07-04T09:04:35;26.30;85.30
12578;DHT22;6354;51.026;8.968;2022-07-04T09:07:03;26.30;86.40
12578;DHT22;6354;51.026;8.968;2022-07-04T09:09:33;26.30;86.80
12578;DHT22;6354;51.026;8.968;2022-07-04T09:12:01;26.10;86.80
12578;DHT22;6354;51.026;8.968;2022-07-04T09:14:29;26.20;85.20
12578;DHT22;6354;51.026;8.968;2022-07-04T09:16:57;26.20;86.80
12578;DHT22;6354;51.026;8.968;2022-07-04T09:19:25;25.70;85.50
12578;DHT22;6354;51.026;8.968;2022-07-04T09:21:55;25.80;87.40
12578;DHT22;6354;51.026;8.968;2022-07-04T09:24:43;25.80;87.60
12578;DHT22;6354;51.026;8.968;2022-07-04T09:27:11;25.80;86.10
12578;DHT22;6354;51.026;8.968;2022-07-04T09:29:51;25.80;86.10
12578;DHT22;6354;51.026;8.968;2022-07-04T09:32:32;25.70;82.20
12578;DHT22;6354;51.026;8.968;2022-07-04T09:35:01;25.70;85.20
12578;DHT22;6354;51.026;8.968;2022-07-04T09:37:38;25.60;82.00
12578;DHT22;6354;51.026;8.968;2022-07-04T09:40:09;25.50;81.10
12578;DHT22;6354;51.026;8.968;2022-07-04T09:42:39;25.50;83.30
12578;DHT22;6354;51.026;8.968;2022-07-04T09:45:09;25.50;84.70
12578;DHT22;6354;51.026;8.968;2022-07-04T09:47:38;25.60;83.00
12578;DHT22;6354;51.026;8.968;2022-07-04T09:50:08;25.60;82.20
12578;DHT22;6354;51.026;8.968;2022-07-04T09:52:47;25.70;85.90
12578;DHT22;6354;51.026;8.968;2022-07-04T09:55:23;25.90;83.70
12578;DHT22;6354;51.026;8.968;2022-07-04T09:57:53;26.00;83.70
12578;DHT22;6354;51.026;8.968;2022-07-04T10:00:24;26.00;83.00
12578;DHT22;6354;51.026;8.968;2022-07-04T10:02:54;26.00;81.10
12578;DHT22;6354;51.026;8.968;2022-07-04T10:05:24;25.80;81.10
12578;DHT22;6354;51.026;8.968;2022-07-04T10:07:56;25.90;83.90
12578;DHT22;6354;51.026;8.968;2022-07-04T10:10:28;25.90;81.50
12578;DHT22;6354;51.026;8.968;2022-07-04T10:12:58;26.00;82.70
12578;DHT22;6354;51.026;8.968;2022-07-04T10:15:27;26.00;80.10
12578;DHT22;6354;51.026;8.968;2022-07-04T10:17:55;25.90;78.20
12578;DHT22;6354;51.026;8.968;2022-07-04T10:20:23;25.70;78.70
12578;DHT22;6354;51.026;8.968;2022-07-04T10:22:52;25.60;80.00
12578;DHT22;6354;51.026;8.968;2022-07-04T10:25:21;25.60;79.70
12578;DHT22;6354;51.026;8.968;2022-07-04T10:27:49;25.60;80.10
12578;DHT22;6354;51.026;8.968;2022-07-04T10:30:22;25.70;78.10
12578;DHT22;6354;51.026;8.968;2022-07-04T10:32:52;25.80;82.60
12578;DHT22;6354;51.026;8.968;2022-07-04T10:35:51;26.00;82.10
12578;DHT22;6354;51.026;8.968;2022-07-04T10:38:22;26.00;79.60
12578;DHT22;6354;51.026;8.968;2022-07-04T10:40:53;25.90;81.50
12578;DHT22;6354;51.026;8.968;2022-07-04T10:46:52;25.70;75.80
12578;DHT22;6354;51.026;8.968;2022-07-04T10:49:25;25.80;82.00
12578;DHT22;6354;51.026;8.968;2022-07-04T10:51:56;25.70;77.30
12578;DHT22;6354;51.026;8.968;2022-07-04T10:54:30;25.60;75.90
12578;DHT22;6354;51.026;8.968;2022-07-04T10:57:10;25.40;76.60
12578;DHT22;6354;51.026;8.968;2022-07-04T10:59:39;25.30;76.70
12578;DHT22;6354;51.026;8.968;2022-07-04T11:02:28;25.30;77.80
12578;DHT22;6354;51.026;8.968;2022-07-04T11:04:59;25.40;77.70
12578;DHT22;6354;51.026;8.968;2022-07-04T11:07:59;25.60;81.50
12578;DHT22;6354;51.026;8.968;2022-07-04T11:10:30;25.70;83.80
12578;DHT22;6354;51.026;8.968;2022-07-04T11:13:22;25.90;83.40
12578;DHT22;6354;51.026;8.968;2022-07-04T11:16:04;26.10;80.00
12578;DHT22;6354;51.026;8.968;2022-07-04T11:18:40;25.70;77.80
12578;DHT22;6354;51.026;8.968;2022-07-04T11:21:22;25.30;77.90
12578;DHT22;6354;51.026;8.968;2022-07-04T11:23:53;25.40;78.70
12578;DHT22;6354;51.026;8.968;2022-07-04T11:26:22;25.50;79.60
12578;DHT22;6354;51.026;8.968;2022-07-04T11:28:53;25.60;78.00
12578;DHT22;6354;51.026;8.968;2022-07-04T11:31:34;25.70;77.40
12578;DHT22;6354;51.026;8.968;2022-07-04T11:34:02;25.90;78.50
12578;DHT22;6354;51.026;8.968;2022-07-04T11:36:31;25.90;76.70
12578;DHT22;6354;51.026;8.968;2022-07-04T11:39:00;26.10;80.40
12578;DHT22;6354;51.026;8.968;2022-07-04T11:41:32;26.00;77.60
12578;DHT22;6354;51.026;8.968;2022-07-04T11:44:20;26.10;76.90
12578;DHT22;6354;51.026;8.968;2022-07-04T11:47:08;26.10;76.90
12578;DHT22;6354;51.026;8.968;2022-07-04T11:49:43;26.10;78.40
12578;DHT22;6354;51.026;8.968;2022-07-04T11:52:13;26.10;78.20
12578;DHT22;6354;51.026;8.968;2022-07-04T11:54:43;26.10;78.00
12578;DHT22;6354;51.026;8.968;2022-07-04T11:57:22;26.10;76.40
12578;DHT22;6354;51.026;8.968;2022-07-04T11:59:59;26.00;75.40
12578;DHT22;6354;51.026;8.968;2022-07-04T12:02:29;25.90;74.90
12578;DHT22;6354;51.026;8.968;2022-07-04T12:04:58;26.10;78.20
12578;DHT22;6354;51.026;8.968;2022-07-04T12:07:27;26.20;76.20
12578;DHT22;6354;51.026;8.968;2022-07-04T12:09:56;26.10;73.50
12578;DHT22;6354;51.026;8.968;2022-07-04T12:12:24;26.20;77.20
12578;DHT22;6354;51.026;8.968;2022-07-04T12:15:05;26.10;73.10
12578;DHT22;6354;51.026;8.968;2022-07-04T12:17:35;26.10;77.50
12578;DHT22;6354;51.026;8.968;2022-07-04T12:20:11;26.10;76.90
12578;DHT22;6354;51.026;8.968;2022-07-04T12:22:43;26.30;78.80
12578;DHT22;6354;51.026;8.968;2022-07-04T12:25:24;26.30;76.00
12578;DHT22;6354;51.026;8.968;2022-07-04T12:27:54;26.30;77.50
12578;DHT22;6354;51.026;8.968;2022-07-04T12:30:25;26.30;78.20
12578;DHT22;6354;51.026;8.968;2022-07-04T12:32:57;26.10;74.70
12578;DHT22;6354;51.026;8.968;2022-07-04T12:35:40;26.10;75.60
12578;DHT22;6354;51.026;8.968;2022-07-04T12:38:11;26.10;76.50
12578;DHT22;6354;51.026;8.968;2022-07-04T12:40:51;26.20;74.60
12578;DHT22;6354;51.026;8.968;2022-07-04T12:43:20;26.20;73.80
12578;DHT22;6354;51.026;8.968;2022-07-04T12:45:51;26.10;71.90
12578;DHT22;6354;51.026;8.968;2022-07-04T12:48:24;26.10;74.90
12578;DHT22;6354;51.026;8.968;2022-07-04T12:50:52;26.10;73.20
12578;DHT22;6354;51.026;8.968;2022-07-04T12:53:21;26.00;71.70
12578;DHT22;6354;51.026;8.968;2022-07-04T12:55:50;25.80;71.70
12578;DHT22;6354;51.026;8.968;2022-07-04T12:58:18;25.90;75.80
12578;DHT22;6354;51.026;8.968;2022-07-04T13:00:46;26.20;77.10
12578;DHT22;6354;51.026;8.968;2022-07-04T13:03:16;26.20;71.90
12578;DHT22;6354;51.026;8.968;2022-07-04T13:05:44;26.30;76.90
12578;DHT22;6354;51.026;8.968;2022-07-04T13:08:12;26.50;73.40
12578;DHT22;6354;51.026;8.968;2022-07-04T13:10:41;26.50;73.10
12578;DHT22;6354;51.026;8.968;2022-07-04T13:13:09;26.50;73.80
12578;DHT22;6354;51.026;8.968;2022-07-04T13:15:37;26.50;72.90
12578;DHT22;6354;51.026;8.968;2022-07-04T13:18:06;26.60;72.10
12578;DHT22;6354;51.026;8.968;2022-07-04T13:20:35;26.50;71.60
12578;DHT22;6354;51.026;8.968;2022-07-04T13:23:03;26.50;73.70
12578;DHT22;6354;51.026;8.968;2022-07-04T13:25:42;26.60;75.50
12578;DHT22;6354;51.026;8.968;2022-07-04T13:28:10;26.60;75.20
12578;DHT22;6354;51.026;8.968;2022-07-04T13:30:38;26.60;75.30
12578;DHT22;6354;51.026;8.968;2022-07-04T13:33:06;26.60;72.20
12578;DHT22;6354;51.026;8.968;2022-07-04T13:35:36;26.50;72.00
12578;DHT22;6354;51.026;8.968;2022-07-04T13:38:04;26.40;72.00
12578;DHT22;6354;51.026;8.968;2022-07-04T13:40:32;26.30;73.70
12578;DHT22;6354;51.026;8.968;2022-07-04T13:43:00;26.40;72.10
12578;DHT22;6354;51.026;8.968;2022-07-04T13:45:38;26.40;75.20
12578;DHT22;6354;51.026;8.968;2022-07-04T13:48:07;26.70;76.10
12578;DHT22;6354;51.026;8.968;2022-07-04T13:50:37;26.60;71.50
12578;DHT22;6354;51.026;8.968;2022-07-04T13:53:06;26.60;73.10
12578;DHT22;6354;51.026;8.968;2022-07-04T13:55:35;26.40;71.40
12578;DHT22;6354;51.026;8.968;2022-07-04T13:58:07;26.40;74.10
12578;DHT22;6354;51.026;8.968;2022-07-04T14:00:36;26.40;73.30
12578;DHT22;6354;51.026;8.968;2022-07-04T14:03:05;26.10;71.10
12578;DHT22;6354;51.026;8.968;2022-07-04T14:05:33;26.00;71.00
12578;DHT22;6354;51.026;8.968;2022-07-04T14:08:03;25.80;71.80
12578;DHT22;6354;51.026;8.968;2022-07-04T14:10:31;25.70;72.20
12578;DHT22;6354;51.026;8.968;2022-07-04T14:12:59;25.50;71.70
12578;DHT22;6354;51.026;8.968;2022-07-04T14:15:27;25.60;71.70
12578;DHT22;6354;51.026;8.968;2022-07-04T14:17:55;25.60;71.90
12578;DHT22;6354;51.026;8.968;2022-07-04T14:20:23;25.60;71.60
12578;DHT22;6354;51.026;8.968;2022-07-04T14:22:51;25.60;74.10
12578;DHT22;6354;51.026;8.968;2022-07-04T14:25:21;25.50;73.40
12578;DHT22;6354;51.026;8.968;2022-07-04T14:27:49;25.50;73.10
12578;DHT22;6354;51.026;8.968;2022-07-04T14:30:17;25.60;73.70
12578;DHT22;6354;51.026;8.968;2022-07-04T14:32:45;25.60;74.20
12578;DHT22;6354;51.026;8.968;2022-07-04T14:35:13;25.60;75.20
12578;DHT22;6354;51.026;8.968;2022-07-04T14:37:41;25.90;76.00
12578;DHT22;6354;51.026;8.968;2022-07-04T14:40:10;26.10;75.70
12578;DHT22;6354;51.026;8.968;2022-07-04T14:42:40;26.30;75.30
12578;DHT22;6354;51.026;8.968;2022-07-04T14:45:09;26.40;78.40
12578;DHT22;6354;51.026;8.968;2022-07-04T14:47:38;26.50;75.70
12578;DHT22;6354;51.026;8.968;2022-07-04T14:50:08;26.60;77.40
12578;DHT22;6354;51.026;8.968;2022-07-04T14:52:37;26.60;77.40
12578;DHT22;6354;51.026;8.968;2022-07-04T14:55:05;26.60;75.70
12578;DHT22;6354;51.026;8.968;2022-07-04T14:57:33;26.40;74.20
12578;DHT22;6354;51.026;8.968;2022-07-04T15:00:03;26.40;74.90
12578;DHT22;6354;51.026;8.968;2022-07-04T15:02:32;26.10;74.20
12578;DHT22;6354;51.026;8.968;2022-07-04T15:05:01;26.20;75.90
12578;DHT22;6354;51.026;8.968;2022-07-04T15:07:29;26.10;74.20
12578;DHT22;6354;51.026;8.968;2022-07-04T15:09:57;26.10;73.90
12578;DHT22;6354;51.026;8.968;2022-07-04T15:12:25;26.20;76.00
12578;DHT22;6354;51.026;8.968;2022-07-04T15:14:53;26.10;74.60
12578;DHT22;6354;51.026;8.968;2022-07-04T15:17:22;26.10;73.00
12578;DHT22;6354;51.026;8.968;2022-07-04T15:19:51;26.10;73.10
12578;DHT22;6354;51.026;8.968;2022-07-04T15:22:36;26.10;73.40
12578;DHT22;6354;51.026;8.968;2022-07-04T15:25:21;26.10;74.80
12578;DHT22;6354;51.026;8.968;2022-07-04T15:27:49;26.10;73.10
12578;DHT22;6354;51.026;8.968;2022-07-04T15:30:18;26.10;71.60
12578;DHT22;6354;51.026;8.968;2022-07-04T15:32:48;26.00;71.90
12578;DHT22;6354;51.026;8.968;2022-07-04T15:35:16;25.80;72.80
12578;DHT22;6354;51.026;8.968;2022-07-04T15:37:44;25.90;72.40
12578;DHT22;6354;51.026;8.968;2022-07-04T15:40:12;25.90;71.90
12578;DHT22;6354;51.026;8.968;2022-07-04T15:42:40;25.90;72.10
12578;DHT22;6354;51.026;8.968;2022-07-04T15:45:09;25.90;71.10
12578;DHT22;6354;51.026;8.968;2022-07-04T15:47:37;25.70;72.20
12578;DHT22;6354;51.026;8.968;2022-07-04T15:50:08;25.70;73.10
12578;DHT22;6354;51.026;8.968;2022-07-04T15:52:36;25.70;74.60
12578;DHT22;6354;51.026;8.968;2022-07-04T15:55:05;25.80;75.50
12578;DHT22;6354;51.026;8.968;2022-07-04T15:57:38;25.90;75.50
12578;DHT22;6354;51.026;8.968;2022-07-04T16:00:07;25.70;74.50
12578;DHT22;6354;51.026;8.968;2022-07-04T16:02:35;25.60;74.30
12578;DHT22;6354;51.026;8.968;2022-07-04T16:05:04;25.70;75.50
12578;DHT22;6354;51.026;8.968;2022-07-04T16:07:35;25.80;75.70